9D7

Cando Municipal Airport

Cando, North Dakota, USA
METAR K9D7 151215Z AUTO 00000KT 10SM CLR 08/08 A3000 RMK AO2
Observed Flight Rules
Aug-15 @ 12:15 UTC (25 minutes ago) Visual Flight Rules
Visibility Clouds
10 miles
  • Clear skies
Temperatures Readings
Current 8°C / 46°F
Dewpoint 8°C / 46°F
Humidity 100%
Altimeter 30" Hg
Pressure 1016 hPa
Elevation 452
METAR K9D7 151215Z AUTO 00000KT 10SM CLR 08/08 A3000 RMK AO2
Observed Flight Rules
Aug-15 @ 12:15 UTC
(25 minutes ago)
VFR
Clouds
  • Clear skies
Temperature Dewpoint
8°C / 46°F 8°C / 46°F
Humidity Altimeter Pressure
100% 30" Hg 1016 hPa